Charity, Virginia
Current Conditions -  °F | °C
As of 4:35 AM on Friday 28 Nov 2014 (Local Time) from KMTV Reporting Station
Broken Clouds Broken Clouds  
Wind Chill: 30°   Ceiling: 4600
Heat Index: 30°   Visibility: 10mi
Dew Point: 21°   Wind: 0mph
Humidity: 69%   Direction: NA
Pressure: 30.32"   Gusts: NA
Location:  36.9002°N, 80.0779°W
Report Text: KMTV 280935Z AUTO 00000KT 10SM BKN046 M01/M06 A3032 RMK AO2 T10091060
Loading
Personal Weather Stations






























Interactive Weather Map New forecast layout! Learn more

10-Day Weather Forecast

Advertisements
Track Severe Weather on mobile